Evelyn Maersk — OXHV2 — position and weather

sailwx.info

Track history (hours):
 
Tides and Currents Weather Stations Pressure Air Temp Water Temp Dewpoint Dewpoint Depression Visibility Wind Speed Wind Dir Waves Ship Positions

Evelyn Maersk

Last reported at 2014-Nov-13 17:18 UTC. Time now 2014-Nov-26 03:03 UTC.
Position N 01°18' E 103°33'.
Warning: this ship's position is 12 days out of date.

Length 398 m; draft 15.3 m.

Type: Cargo ship. MMSI: 220496000.

Date/timePositionNaut miles runAvg speedWind from/ knotsBaromVisibWave heightAir tempDewpointWater temp
2014-Nov-13 17:18N 01°18' E 103°33'9 7.9
2014-Nov-13 16:08N 01°11' E 103°39'712.8
2014-Nov-13 15:33N 01°10' E 103°47'1414.3
2014-Nov-13 14:33N 01°15' E 103°60'1515.0
2014-Nov-13 13:33N 01°17' E 104°15'  
2014-Nov-10 02:28N 22°34' E 114°17'160 6.1
2014-Nov-09 00:26N 22°57' E 117°08'6013.9
2014-Nov-08 20:07N 23°37' E 117°57'914.0
2014-Nov-08 19:26N 23°44' E 118°04'1314.5
2014-Nov-08 18:33N 23°53' E 118°14'1312.8
2014-Nov-08 17:33N 24°06' E 118°18'1312.3
2014-Nov-08 16:32N 24°17' E 118°13'1110.9
2014-Nov-08 15:33N 24°25' E 118°05'3 2.1
2014-Nov-08 14:05N 24°26' E 118°02'0 0.0
2014-Nov-08 08:11N 24°26' E 118°02'0 0.0
2014-Nov-08 07:23N 24°26' E 118°02'0 0.0
2014-Nov-08 06:17N 24°26' E 118°02'0 0.0
2014-Nov-08 05:29N 24°26' E 118°02'0 0.0
2014-Nov-08 04:11N 24°26' E 118°02'0 0.0
2014-Nov-08 02:23N 24°26' E 118°02'0 0.0
2014-Nov-08 01:23N 24°26' E 118°02'3 3.5
2014-Nov-08 00:33N 24°25' E 118°05'10 9.8
2014-Nov-07 23:33N 24°18' E 118°12'1010.1
2014-Nov-07 22:33N 24°12' E 118°21'1110.7
2014-Nov-07 21:32N 24°14' E 118°33'1110.9
2014-Nov-07 20:30N 24°16' E 118°45'1110.9
2014-Nov-07 19:29N 24°19' E 118°57'  
2014-Nov-05 15:28N 30°38' E 122°03'3 2.8
2014-Nov-05 14:33N 30°36' E 122°05'10 8.8
2014-Nov-05 13:28N 30°33' E 122°16'3015.7
2014-Nov-05 11:33N 30°34' E 122°51'34015.4
2014-Nov-04 13:27N 35°57' E 120°42'1213.7
2014-Nov-04 12:33N 35°60' E 120°27'1110.9
2014-Nov-04 11:33N 36°01' E 120°13'1 1.3
2014-Nov-04 10:33N 36°00' E 120°12'0 0.0
2014-Nov-04 00:23N 36°00' E 120°12'0 0.0
2014-Nov-03 23:17N 36°00' E 120°12'0 0.0
2014-Nov-03 22:29N 36°00' E 120°12'0 0.0
2014-Nov-03 21:17N 36°00' E 120°12'0 0.0
2014-Nov-03 19:11N 36°00' E 120°12'  
Track history (hours):
 
Tides and Currents Weather Stations Pressure Air Temp Water Temp Dewpoint Dewpoint Depression Visibility Wind Speed Wind Dir Waves Ship Positions

Evelyn Maersk

Last reported at 2014-Nov-13 17:18 UTC. Time now 2014-Nov-26 03:03 UTC.
Position N 01°18' E 103°33'.
Warning: this ship's position is 12 days out of date.

Length 398 m; draft 15.3 m.

Type: Cargo ship. MMSI: 220496000.

Date/timePositionNaut miles runAvg speedWind from/ knotsBaromVisibWave heightAir tempDewpointWater temp
2014-Nov-13 17:18N 01°18' E 103°33'9 7.9
2014-Nov-13 16:08N 01°11' E 103°39'712.8
2014-Nov-13 15:33N 01°10' E 103°47'1414.3
2014-Nov-13 14:33N 01°15' E 103°60'1515.0
2014-Nov-13 13:33N 01°17' E 104°15'  
2014-Nov-10 02:28N 22°34' E 114°17'160 6.1
2014-Nov-09 00:26N 22°57' E 117°08'6013.9
2014-Nov-08 20:07N 23°37' E 117°57'914.0
2014-Nov-08 19:26N 23°44' E 118°04'1314.5
2014-Nov-08 18:33N 23°53' E 118°14'1312.8
2014-Nov-08 17:33N 24°06' E 118°18'1312.3
2014-Nov-08 16:32N 24°17' E 118°13'1110.9
2014-Nov-08 15:33N 24°25' E 118°05'3 2.1
2014-Nov-08 14:05N 24°26' E 118°02'0 0.0
2014-Nov-08 08:11N 24°26' E 118°02'0 0.0
2014-Nov-08 07:23N 24°26' E 118°02'0 0.0
2014-Nov-08 06:17N 24°26' E 118°02'0 0.0
2014-Nov-08 05:29N 24°26' E 118°02'0 0.0
2014-Nov-08 04:11N 24°26' E 118°02'0 0.0
2014-Nov-08 02:23N 24°26' E 118°02'0 0.0
2014-Nov-08 01:23N 24°26' E 118°02'3 3.5
2014-Nov-08 00:33N 24°25' E 118°05'10 9.8
2014-Nov-07 23:33N 24°18' E 118°12'1010.1
2014-Nov-07 22:33N 24°12' E 118°21'1110.7
2014-Nov-07 21:32N 24°14' E 118°33'1110.9
2014-Nov-07 20:30N 24°16' E 118°45'1110.9
2014-Nov-07 19:29N 24°19' E 118°57'  
2014-Nov-05 15:28N 30°38' E 122°03'3 2.8
2014-Nov-05 14:33N 30°36' E 122°05'10 8.8
2014-Nov-05 13:28N 30°33' E 122°16'3015.7
2014-Nov-05 11:33N 30°34' E 122°51'34015.4
2014-Nov-04 13:27N 35°57' E 120°42'1213.7
2014-Nov-04 12:33N 35°60' E 120°27'1110.9
2014-Nov-04 11:33N 36°01' E 120°13'1 1.3
2014-Nov-04 10:33N 36°00' E 120°12'0 0.0
2014-Nov-04 00:23N 36°00' E 120°12'0 0.0
2014-Nov-03 23:17N 36°00' E 120°12'0 0.0
2014-Nov-03 22:29N 36°00' E 120°12'0 0.0
2014-Nov-03 21:17N 36°00' E 120°12'0 0.0
2014-Nov-03 19:11N 36°00' E 120°12'  

Dump ship's entire track history